Big River, Canada
Current Conditions -  °F | °C
As of 8:00 AM on Thursday 29 Jan 2015 (Local Time) from CYLJ Reporting Station
Light Snow Light Snow  
Wind Chill: -10°   Ceiling: 1200
Heat Index:   Visibility: 15mi
Dew Point: -2°   Wind: 6mph
Humidity: 85%   Direction: 90°E
Pressure: 30.47"   Gusts: NA
Location:  53.83°N, 107.03°W
Report Text: CYLJ 291400Z 09005KT 15SM -SN OVC012 M17/M19 A3047 RMK SC8 SLP365
Loading
Personal Weather Stations






























Interactive Weather Map New forecast layout! Learn more

10-Day Weather Forecast

Advertisements
Track Severe Weather on mobile